sensor_id;sensor_type;location;lat;lon;timestamp;pressure;altitude;pressure_sealevel;temperature;humidity
53715;BME280;39608;55.630;37.864;2023-01-29T00:02:40;99665.41;;;-0.81;70.42
53715;BME280;39608;55.630;37.864;2023-01-29T00:07:42;99665.41;;;-0.81;69.89
53715;BME280;39608;55.630;37.864;2023-01-29T00:12:45;99669.25;;;-0.77;70.74
53715;BME280;39608;55.630;37.864;2023-01-29T00:17:47;99661.66;;;-0.74;70.87
53715;BME280;39608;55.630;37.864;2023-01-29T00:22:49;99659.00;;;-0.74;70.10
53715;BME280;39608;55.630;37.864;2023-01-29T00:27:53;99663.69;;;-0.69;70.89
53715;BME280;39608;55.630;37.864;2023-01-29T00:32:54;99656.56;;;-0.75;70.58
53715;BME280;39608;55.630;37.864;2023-01-29T00:37:57;99655.50;;;-0.74;70.63
53715;BME280;39608;55.630;37.864;2023-01-29T00:43:01;99643.63;;;-0.72;70.61
53715;BME280;39608;55.630;37.864;2023-01-29T00:48:32;99648.72;;;-0.70;70.50
53715;BME280;39608;55.630;37.864;2023-01-29T00:53:34;99645.47;;;-0.72;70.75
53715;BME280;39608;55.630;37.864;2023-01-29T00:58:40;99633.94;;;-0.66;70.56
53715;BME280;39608;55.630;37.864;2023-01-29T01:03:42;99638.63;;;-0.61;70.66
53715;BME280;39608;55.630;37.864;2023-01-29T01:08:46;99622.56;;;-0.55;71.00
53715;BME280;39608;55.630;37.864;2023-01-29T01:14:07;99624.38;;;-0.48;70.69
53715;BME280;39608;55.630;37.864;2023-01-29T01:19:09;99626.81;;;-0.47;70.38
53715;BME280;39608;55.630;37.864;2023-01-29T01:24:12;99628.69;;;-0.47;70.50
53715;BME280;39608;55.630;37.864;2023-01-29T01:29:15;99627.63;;;-0.46;70.20
53715;BME280;39608;55.630;37.864;2023-01-29T01:34:17;99623.56;;;-0.49;70.44
53715;BME280;39608;55.630;37.864;2023-01-29T01:39:21;99628.28;;;-0.51;70.57
53715;BME280;39608;55.630;37.864;2023-01-29T01:44:51;99614.06;;;-0.45;70.03
53715;BME280;39608;55.630;37.864;2023-01-29T01:49:55;99611.78;;;-0.60;70.05
53715;BME280;39608;55.630;37.864;2023-01-29T01:55:05;99611.91;;;-0.55;70.55
53715;BME280;39608;55.630;37.864;2023-01-29T02:00:11;99606.97;;;-0.51;70.46
53715;BME280;39608;55.630;37.864;2023-01-29T02:05:15;99606.22;;;-0.58;70.06
53715;BME280;39608;55.630;37.864;2023-01-29T02:10:36;99594.88;;;-0.72;69.92
53715;BME280;39608;55.630;37.864;2023-01-29T02:15:41;99593.03;;;-0.72;69.77
53715;BME280;39608;55.630;37.864;2023-01-29T02:20:53;99564.31;;;-0.88;69.85
53715;BME280;39608;55.630;37.864;2023-01-29T02:26:09;99558.75;;;-0.87;70.18
53715;BME280;39608;55.630;37.864;2023-01-29T02:31:23;99580.53;;;-0.71;70.05
53715;BME280;39608;55.630;37.864;2023-01-29T02:36:34;99582.88;;;-0.81;69.58
53715;BME280;39608;55.630;37.864;2023-01-29T02:41:42;99549.69;;;-1.04;69.49
53715;BME280;39608;55.630;37.864;2023-01-29T02:46:52;99566.25;;;-1.02;69.90
53715;BME280;39608;55.630;37.864;2023-01-29T02:52:01;99550.78;;;-1.12;69.44
53715;BME280;39608;55.630;37.864;2023-01-29T02:57:08;99549.41;;;-1.21;69.66
53715;BME280;39608;55.630;37.864;2023-01-29T03:02:19;99549.00;;;-1.25;69.58
53715;BME280;39608;55.630;37.864;2023-01-29T03:07:27;99532.69;;;-1.28;69.88
53715;BME280;39608;55.630;37.864;2023-01-29T03:12:48;99534.03;;;-1.19;69.59
53715;BME280;39608;55.630;37.864;2023-01-29T03:17:56;99531.75;;;-1.15;69.05
53715;BME280;39608;55.630;37.864;2023-01-29T03:23:03;99519.34;;;-1.22;68.34
53715;BME280;39608;55.630;37.864;2023-01-29T03:28:06;99523.59;;;-1.21;68.39
53715;BME280;39608;55.630;37.864;2023-01-29T03:33:30;99501.13;;;-1.25;68.74
53715;BME280;39608;55.630;37.864;2023-01-29T03:38:33;99502.31;;;-1.21;68.55
53715;BME280;39608;55.630;37.864;2023-01-29T03:43:38;99480.91;;;-1.26;67.54
53715;BME280;39608;55.630;37.864;2023-01-29T03:48:51;99477.78;;;-1.23;68.13
53715;BME280;39608;55.630;37.864;2023-01-29T03:54:03;99484.88;;;-1.16;67.61
53715;BME280;39608;55.630;37.864;2023-01-29T03:59:15;99472.19;;;-1.14;67.81
53715;BME280;39608;55.630;37.864;2023-01-29T04:04:23;99460.59;;;-1.20;67.52
53715;BME280;39608;55.630;37.864;2023-01-29T04:09:30;99449.03;;;-1.32;67.62
53715;BME280;39608;55.630;37.864;2023-01-29T04:14:33;99441.53;;;-1.42;67.24
53715;BME280;39608;55.630;37.864;2023-01-29T04:19:37;99438.47;;;-1.46;67.32
53715;BME280;39608;55.630;37.864;2023-01-29T04:24:40;99415.91;;;-1.62;67.61
53715;BME280;39608;55.630;37.864;2023-01-29T04:29:53;99443.59;;;-1.44;67.55
53715;BME280;39608;55.630;37.864;2023-01-29T04:35:08;99431.59;;;-1.53;67.05
53715;BME280;39608;55.630;37.864;2023-01-29T04:40:19;99423.19;;;-1.50;67.04
53715;BME280;39608;55.630;37.864;2023-01-29T04:45:31;99423.63;;;-1.53;67.82
53715;BME280;39608;55.630;37.864;2023-01-29T04:50:43;99415.03;;;-1.56;67.48
53715;BME280;39608;55.630;37.864;2023-01-29T04:55:50;99422.47;;;-1.64;66.97
53715;BME280;39608;55.630;37.864;2023-01-29T05:00:57;99424.16;;;-1.70;67.06
53715;BME280;39608;55.630;37.864;2023-01-29T05:06:03;99418.84;;;-1.70;67.01
53715;BME280;39608;55.630;37.864;2023-01-29T05:11:06;99418.09;;;-1.77;66.89
53715;BME280;39608;55.630;37.864;2023-01-29T05:16:13;99410.88;;;-1.70;67.62
53715;BME280;39608;55.630;37.864;2023-01-29T05:21:19;99407.78;;;-1.67;67.71
53715;BME280;39608;55.630;37.864;2023-01-29T05:26:23;99412.50;;;-1.69;67.03
53715;BME280;39608;55.630;37.864;2023-01-29T05:31:42;99413.31;;;-1.68;66.93
53715;BME280;39608;55.630;37.864;2023-01-29T05:36:46;99414.50;;;-1.64;67.66
53715;BME280;39608;55.630;37.864;2023-01-29T05:41:48;99410.66;;;-1.68;67.03
53715;BME280;39608;55.630;37.864;2023-01-29T05:46:50;99407.47;;;-1.77;66.93
53715;BME280;39608;55.630;37.864;2023-01-29T05:51:53;99402.72;;;-1.75;67.63
53715;BME280;39608;55.630;37.864;2023-01-29T05:56:55;99408.66;;;-1.73;67.58
53715;BME280;39608;55.630;37.864;2023-01-29T06:01:57;99402.34;;;-1.79;66.81
53715;BME280;39608;55.630;37.864;2023-01-29T06:07:01;99415.00;;;-1.74;67.60
53715;BME280;39608;55.630;37.864;2023-01-29T06:12:05;99427.47;;;-1.75;67.56
53715;BME280;39608;55.630;37.864;2023-01-29T06:17:07;99414.78;;;-1.73;67.40
53715;BME280;39608;55.630;37.864;2023-01-29T06:22:11;99415.59;;;-1.72;66.89
53715;BME280;39608;55.630;37.864;2023-01-29T06:27:13;99400.91;;;-1.75;66.89
53715;BME280;39608;55.630;37.864;2023-01-29T06:32:15;99408.66;;;-1.73;67.53
53715;BME280;39608;55.630;37.864;2023-01-29T06:37:18;99400.47;;;-1.72;67.00
53715;BME280;39608;55.630;37.864;2023-01-29T06:42:20;99395.38;;;-1.73;67.38
53715;BME280;39608;55.630;37.864;2023-01-29T06:47:27;99394.53;;;-1.74;67.25
53715;BME280;39608;55.630;37.864;2023-01-29T06:52:30;99402.50;;;-1.74;67.21
53715;BME280;39608;55.630;37.864;2023-01-29T06:57:32;99381.69;;;-1.77;66.58
53715;BME280;39608;55.630;37.864;2023-01-29T07:02:34;99390.19;;;-1.68;67.21
53715;BME280;39608;55.630;37.864;2023-01-29T07:07:38;99384.00;;;-1.62;66.84
53715;BME280;39608;55.630;37.864;2023-01-29T07:12:40;99372.94;;;-1.59;66.96
53715;BME280;39608;55.630;37.864;2023-01-29T07:17:42;99371.03;;;-1.51;66.89
53715;BME280;39608;55.630;37.864;2023-01-29T07:22:45;99369.78;;;-1.49;66.72
53715;BME280;39608;55.630;37.864;2023-01-29T07:27:47;99366.91;;;-1.47;66.65
53715;BME280;39608;55.630;37.864;2023-01-29T07:32:49;99373.19;;;-1.42;66.44
53715;BME280;39608;55.630;37.864;2023-01-29T07:37:52;99370.91;;;-1.38;66.44
53715;BME280;39608;55.630;37.864;2023-01-29T07:42:57;99353.94;;;-1.37;66.76
53715;BME280;39608;55.630;37.864;2023-01-29T07:47:59;99368.41;;;-1.33;66.33
53715;BME280;39608;55.630;37.864;2023-01-29T07:53:02;99362.88;;;-1.31;66.49
53715;BME280;39608;55.630;37.864;2023-01-29T07:58:04;99368.53;;;-1.28;66.16
53715;BME280;39608;55.630;37.864;2023-01-29T08:03:09;99366.50;;;-1.26;66.03
53715;BME280;39608;55.630;37.864;2023-01-29T08:08:13;99355.03;;;-1.26;66.47
53715;BME280;39608;55.630;37.864;2023-01-29T08:13:16;99347.50;;;-1.29;65.92
53715;BME280;39608;55.630;37.864;2023-01-29T08:18:18;99347.41;;;-1.23;66.22
53715;BME280;39608;55.630;37.864;2023-01-29T08:23:21;99338.69;;;-1.11;66.18
53715;BME280;39608;55.630;37.864;2023-01-29T08:28:24;99323.31;;;-1.09;66.05
53715;BME280;39608;55.630;37.864;2023-01-29T08:33:26;99292.97;;;-1.20;65.66
53715;BME280;39608;55.630;37.864;2023-01-29T08:38:30;99304.75;;;-0.97;65.42
53715;BME280;39608;55.630;37.864;2023-01-29T08:43:32;99321.22;;;-0.89;65.35
53715;BME280;39608;55.630;37.864;2023-01-29T08:48:36;99313.72;;;-0.80;65.51
53715;BME280;39608;55.630;37.864;2023-01-29T08:53:39;99314.75;;;-0.62;65.27
53715;BME280;39608;55.630;37.864;2023-01-29T08:58:41;99312.88;;;-0.62;65.16
53715;BME280;39608;55.630;37.864;2023-01-29T09:03:43;99312.00;;;-0.56;64.68
53715;BME280;39608;55.630;37.864;2023-01-29T09:08:47;99301.69;;;-0.52;64.68
53715;BME280;39608;55.630;37.864;2023-01-29T09:13:50;99300.06;;;-0.53;64.58
53715;BME280;39608;55.630;37.864;2023-01-29T09:18:52;99285.69;;;-0.64;64.24
53715;BME280;39608;55.630;37.864;2023-01-29T09:23:56;99284.19;;;-0.60;63.77
53715;BME280;39608;55.630;37.864;2023-01-29T09:28:58;99286.97;;;-0.55;63.90
53715;BME280;39608;55.630;37.864;2023-01-29T09:34:00;99301.81;;;-0.47;64.07
53715;BME280;39608;55.630;37.864;2023-01-29T09:39:03;99283.97;;;-0.46;63.50
53715;BME280;39608;55.630;37.864;2023-01-29T09:44:12;99257.81;;;-0.49;63.00
53715;BME280;39608;55.630;37.864;2023-01-29T09:49:22;99236.94;;;-0.53;63.09
53715;BME280;39608;55.630;37.864;2023-01-29T09:54:29;99246.56;;;-0.52;62.63
53715;BME280;39608;55.630;37.864;2023-01-29T09:59:34;99248.63;;;-0.54;62.88
53715;BME280;39608;55.630;37.864;2023-01-29T10:05:05;99235.22;;;-0.47;62.47
53715;BME280;39608;55.630;37.864;2023-01-29T10:10:21;99244.28;;;-0.36;62.69
53715;BME280;39608;55.630;37.864;2023-01-29T10:15:37;99229.78;;;-0.40;63.04
53715;BME280;39608;55.630;37.864;2023-01-29T10:20:52;99232.19;;;-0.50;61.89
53715;BME280;39608;55.630;37.864;2023-01-29T10:25:59;99215.50;;;-0.58;61.85
53715;BME280;39608;55.630;37.864;2023-01-29T10:31:04;99197.69;;;-0.57;61.69
53715;BME280;39608;55.630;37.864;2023-01-29T10:36:09;99188.34;;;-0.36;62.93
53715;BME280;39608;55.630;37.864;2023-01-29T10:41:25;99179.53;;;-0.48;61.48
53715;BME280;39608;55.630;37.864;2023-01-29T10:46:45;99142.00;;;-0.59;61.80
53715;BME280;39608;55.630;37.864;2023-01-29T10:52:07;99148.13;;;-0.46;60.63
53715;BME280;39608;55.630;37.864;2023-01-29T10:57:20;99125.78;;;-0.45;61.27
53715;BME280;39608;55.630;37.864;2023-01-29T11:02:23;99122.06;;;-0.44;61.31
53715;BME280;39608;55.630;37.864;2023-01-29T11:07:26;99126.00;;;-0.35;60.88
53715;BME280;39608;55.630;37.864;2023-01-29T11:12:30;99120.22;;;-0.32;60.52
53715;BME280;39608;55.630;37.864;2023-01-29T11:17:33;99121.50;;;-0.35;61.08
53715;BME280;39608;55.630;37.864;2023-01-29T11:22:35;99116.63;;;-0.49;60.76
53715;BME280;39608;55.630;37.864;2023-01-29T11:27:44;99097.66;;;-0.53;60.70
53715;BME280;39608;55.630;37.864;2023-01-29T11:32:50;99105.25;;;-0.45;60.38
53715;BME280;39608;55.630;37.864;2023-01-29T11:38:06;99114.31;;;-0.34;59.99
53715;BME280;39608;55.630;37.864;2023-01-29T11:43:18;99090.91;;;-0.44;60.29
53715;BME280;39608;55.630;37.864;2023-01-29T11:48:29;99103.66;;;-0.34;59.99
53715;BME280;39608;55.630;37.864;2023-01-29T11:53:36;99095.41;;;-0.32;60.47
53715;BME280;39608;55.630;37.864;2023-01-29T11:58:41;99087.44;;;-0.44;60.33
53715;BME280;39608;55.630;37.864;2023-01-29T12:03:47;99105.63;;;-0.41;60.50
53715;BME280;39608;55.630;37.864;2023-01-29T12:08:54;99074.94;;;-0.67;60.30
53715;BME280;39608;55.630;37.864;2023-01-29T12:14:00;99105.97;;;-0.49;60.80
53715;BME280;39608;55.630;37.864;2023-01-29T12:19:09;99096.16;;;-0.49;60.60
53715;BME280;39608;55.630;37.864;2023-01-29T12:24:23;99084.31;;;-0.41;61.13
53715;BME280;39608;55.630;37.864;2023-01-29T12:29:36;99091.84;;;-0.38;60.54
53715;BME280;39608;55.630;37.864;2023-01-29T12:34:45;99082.13;;;-0.44;61.05
53715;BME280;39608;55.630;37.864;2023-01-29T12:39:50;99084.09;;;-0.52;60.90
53715;BME280;39608;55.630;37.864;2023-01-29T12:44:57;99074.72;;;-0.54;60.64
53715;BME280;39608;55.630;37.864;2023-01-29T12:50:03;99061.50;;;-0.61;61.10
53715;BME280;39608;55.630;37.864;2023-01-29T12:55:10;99066.72;;;-0.54;61.01
53715;BME280;39608;55.630;37.864;2023-01-29T13:00:20;99076.19;;;-0.46;61.16
53715;BME280;39608;55.630;37.864;2023-01-29T13:05:25;99056.78;;;-0.59;61.17
53715;BME280;39608;55.630;37.864;2023-01-29T13:10:31;99074.25;;;-0.63;61.42
53715;BME280;39608;55.630;37.864;2023-01-29T13:15:39;99064.97;;;-0.60;61.16
53715;BME280;39608;55.630;37.864;2023-01-29T13:20:42;99065.13;;;-0.67;61.00
53715;BME280;39608;55.630;37.864;2023-01-29T13:25:50;99072.97;;;-0.72;61.21
53715;BME280;39608;55.630;37.864;2023-01-29T13:31:18;99052.38;;;-0.65;61.94
53715;BME280;39608;55.630;37.864;2023-01-29T13:36:27;99066.16;;;-0.68;62.00
53715;BME280;39608;55.630;37.864;2023-01-29T13:41:35;99044.84;;;-0.80;61.40
53715;BME280;39608;55.630;37.864;2023-01-29T13:46:43;99047.84;;;-0.76;61.98
53715;BME280;39608;55.630;37.864;2023-01-29T13:51:51;99050.88;;;-0.73;61.97
53715;BME280;39608;55.630;37.864;2023-01-29T13:56:59;99050.53;;;-0.76;62.46
53715;BME280;39608;55.630;37.864;2023-01-29T14:02:21;99040.44;;;-0.74;62.38
53715;BME280;39608;55.630;37.864;2023-01-29T14:07:49;99042.19;;;-0.68;62.16
53715;BME280;39608;55.630;37.864;2023-01-29T14:12:52;99046.22;;;-0.77;61.80
53715;BME280;39608;55.630;37.864;2023-01-29T14:23:38;99034.91;;;-0.73;62.52
53715;BME280;39608;55.630;37.864;2023-01-29T14:28:41;99018.69;;;-0.83;62.65
53715;BME280;39608;55.630;37.864;2023-01-29T14:33:46;99022.75;;;-0.80;63.00
53715;BME280;39608;55.630;37.864;2023-01-29T14:38:51;99005.38;;;-0.83;62.28
53715;BME280;39608;55.630;37.864;2023-01-29T14:49:50;99014.03;;;-0.76;62.96
53715;BME280;39608;55.630;37.864;2023-01-29T14:54:57;99025.41;;;-0.80;62.70
53715;BME280;39608;55.630;37.864;2023-01-29T15:00:02;99000.16;;;-0.90;62.68
53715;BME280;39608;55.630;37.864;2023-01-29T15:05:10;99012.56;;;-0.83;62.95
53715;BME280;39608;55.630;37.864;2023-01-29T15:10:16;98975.31;;;-1.07;63.14
53715;BME280;39608;55.630;37.864;2023-01-29T15:15:31;99006.88;;;-0.87;62.88
53715;BME280;39608;55.630;37.864;2023-01-29T15:20:45;99011.50;;;-0.94;63.57
53715;BME280;39608;55.630;37.864;2023-01-29T15:25:49;99007.94;;;-1.00;63.13
53715;BME280;39608;55.630;37.864;2023-01-29T15:30:54;99024.59;;;-0.93;63.62
53715;BME280;39608;55.630;37.864;2023-01-29T15:36:00;99003.75;;;-0.96;63.70
53715;BME280;39608;55.630;37.864;2023-01-29T15:41:17;99010.59;;;-0.88;63.55
53715;BME280;39608;55.630;37.864;2023-01-29T15:46:21;99001.66;;;-0.94;63.69
53715;BME280;39608;55.630;37.864;2023-01-29T15:51:27;99000.53;;;-0.86;63.39
53715;BME280;39608;55.630;37.864;2023-01-29T15:56:32;99003.97;;;-0.86;63.79
53715;BME280;39608;55.630;37.864;2023-01-29T16:01:44;98996.47;;;-0.89;63.95
53715;BME280;39608;55.630;37.864;2023-01-29T16:06:48;98998.56;;;-0.91;64.27
53715;BME280;39608;55.630;37.864;2023-01-29T16:11:53;98994.38;;;-0.98;64.31
53715;BME280;39608;55.630;37.864;2023-01-29T16:17:10;98978.78;;;-0.95;64.23
53715;BME280;39608;55.630;37.864;2023-01-29T16:22:24;98980.53;;;-1.00;64.54
53715;BME280;39608;55.630;37.864;2023-01-29T16:27:27;98970.66;;;-1.00;64.22
53715;BME280;39608;55.630;37.864;2023-01-29T16:32:30;98972.88;;;-0.97;64.45
53715;BME280;39608;55.630;37.864;2023-01-29T16:37:34;98962.22;;;-0.97;64.55
53715;BME280;39608;55.630;37.864;2023-01-29T16:42:37;98970.31;;;-0.92;64.81
53715;BME280;39608;55.630;37.864;2023-01-29T16:47:58;98967.31;;;-0.83;64.96
53715;BME280;39608;55.630;37.864;2023-01-29T16:53:11;98918.28;;;-1.11;64.53
53715;BME280;39608;55.630;37.864;2023-01-29T16:58:15;98955.84;;;-0.84;64.60
53715;BME280;39608;55.630;37.864;2023-01-29T17:03:18;98966.72;;;-0.86;64.47
53715;BME280;39608;55.630;37.864;2023-01-29T17:08:32;98961.16;;;-0.84;64.76
53715;BME280;39608;55.630;37.864;2023-01-29T17:13:38;98954.00;;;-0.83;64.37
53715;BME280;39608;55.630;37.864;2023-01-29T17:18:46;98919.53;;;-1.02;64.61
53715;BME280;39608;55.630;37.864;2023-01-29T17:23:50;98938.25;;;-0.97;64.77
53715;BME280;39608;55.630;37.864;2023-01-29T17:29:00;98930.75;;;-1.00;64.58
53715;BME280;39608;55.630;37.864;2023-01-29T17:34:09;98940.94;;;-0.97;64.81
53715;BME280;39608;55.630;37.864;2023-01-29T17:39:17;98934.56;;;-0.96;64.74
53715;BME280;39608;55.630;37.864;2023-01-29T17:44:19;98929.72;;;-0.99;65.12
53715;BME280;39608;55.630;37.864;2023-01-29T17:49:27;98935.03;;;-0.99;64.80
53715;BME280;39608;55.630;37.864;2023-01-29T17:54:33;98937.59;;;-0.92;64.90
53715;BME280;39608;55.630;37.864;2023-01-29T17:59:36;98924.97;;;-0.97;65.07
53715;BME280;39608;55.630;37.864;2023-01-29T18:04:40;98929.25;;;-0.96;64.86
53715;BME280;39608;55.630;37.864;2023-01-29T18:09:46;98932.94;;;-0.97;64.77
53715;BME280;39608;55.630;37.864;2023-01-29T18:14:48;98925.44;;;-1.00;64.71
53715;BME280;39608;55.630;37.864;2023-01-29T18:19:50;98924.88;;;-1.02;64.62
53715;BME280;39608;55.630;37.864;2023-01-29T18:24:56;98907.75;;;-1.06;65.29
53715;BME280;39608;55.630;37.864;2023-01-29T18:29:59;98908.31;;;-1.04;65.38
53715;BME280;39608;55.630;37.864;2023-01-29T18:35:02;98910.97;;;-1.04;64.89
53715;BME280;39608;55.630;37.864;2023-01-29T18:40:09;98913.31;;;-1.08;65.31
53715;BME280;39608;55.630;37.864;2023-01-29T18:45:13;98908.38;;;-0.87;64.11
53715;BME280;39608;55.630;37.864;2023-01-29T18:50:16;98917.09;;;-1.04;64.27
53715;BME280;39608;55.630;37.864;2023-01-29T18:55:20;98900.81;;;-1.07;64.83
53715;BME280;39608;55.630;37.864;2023-01-29T19:00:23;98904.72;;;-1.10;65.28
53715;BME280;39608;55.630;37.864;2023-01-29T19:05:25;98902.75;;;-1.02;64.86
53715;BME280;39608;55.630;37.864;2023-01-29T19:10:29;98897.78;;;-0.99;65.22
53715;BME280;39608;55.630;37.864;2023-01-29T19:15:31;98901.47;;;-1.00;64.81
53715;BME280;39608;55.630;37.864;2023-01-29T19:20:33;98893.50;;;-1.00;64.86
53715;BME280;39608;55.630;37.864;2023-01-29T19:25:38;98883.44;;;-0.98;65.30
53715;BME280;39608;55.630;37.864;2023-01-29T19:30:40;98873.16;;;-1.06;64.96
53715;BME280;39608;55.630;37.864;2023-01-29T19:35:43;98875.09;;;-1.01;65.12
53715;BME280;39608;55.630;37.864;2023-01-29T19:40:47;98874.06;;;-1.00;65.40
53715;BME280;39608;55.630;37.864;2023-01-29T19:45:56;98865.06;;;-1.11;65.52
53715;BME280;39608;55.630;37.864;2023-01-29T19:51:00;98864.25;;;-1.12;65.68
53715;BME280;39608;55.630;37.864;2023-01-29T19:56:07;98860.28;;;-1.09;65.03
53715;BME280;39608;55.630;37.864;2023-01-29T20:01:14;98858.69;;;-1.10;65.18
53715;BME280;39608;55.630;37.864;2023-01-29T20:06:19;98856.28;;;-1.12;65.57
53715;BME280;39608;55.630;37.864;2023-01-29T20:11:24;98858.69;;;-1.10;65.58
53715;BME280;39608;55.630;37.864;2023-01-29T20:16:26;98854.19;;;-1.10;65.37
53715;BME280;39608;55.630;37.864;2023-01-29T20:21:28;98852.09;;;-1.08;65.09
53715;BME280;39608;55.630;37.864;2023-01-29T20:26:31;98845.03;;;-1.02;65.70
53715;BME280;39608;55.630;37.864;2023-01-29T20:37:19;98831.84;;;-1.09;65.55
53715;BME280;39608;55.630;37.864;2023-01-29T20:42:23;98816.78;;;-1.03;65.43
53715;BME280;39608;55.630;37.864;2023-01-29T20:47:25;98803.72;;;-1.05;65.26
53715;BME280;39608;55.630;37.864;2023-01-29T20:52:28;98794.69;;;-1.04;65.63
53715;BME280;39608;55.630;37.864;2023-01-29T20:57:31;98796.06;;;-1.01;65.29
53715;BME280;39608;55.630;37.864;2023-01-29T21:02:33;98796.06;;;-1.01;65.55
53715;BME280;39608;55.630;37.864;2023-01-29T21:07:35;98786.50;;;-1.02;65.95
53715;BME280;39608;55.630;37.864;2023-01-29T21:12:39;98797.69;;;-1.00;66.00
53715;BME280;39608;55.630;37.864;2023-01-29T21:17:41;98788.44;;;-1.09;65.72
53715;BME280;39608;55.630;37.864;2023-01-29T21:22:43;98787.91;;;-1.11;66.09
53715;BME280;39608;55.630;37.864;2023-01-29T21:27:46;98790.56;;;-1.11;65.84
53715;BME280;39608;55.630;37.864;2023-01-29T21:32:48;98793.22;;;-1.11;66.34
53715;BME280;39608;55.630;37.864;2023-01-29T21:37:50;98771.81;;;-1.16;66.12
53715;BME280;39608;55.630;37.864;2023-01-29T21:42:54;98766.25;;;-1.15;66.22
53715;BME280;39608;55.630;37.864;2023-01-29T21:48:15;98776.91;;;-1.15;65.54
53715;BME280;39608;55.630;37.864;2023-01-29T21:53:18;98764.19;;;-1.13;65.49
53715;BME280;39608;55.630;37.864;2023-01-29T21:58:21;98775.16;;;-1.09;65.43
53715;BME280;39608;55.630;37.864;2023-01-29T22:03:24;98774.13;;;-1.08;65.67
53715;BME280;39608;55.630;37.864;2023-01-29T22:08:26;98773.63;;;-1.05;65.50
53715;BME280;39608;55.630;37.864;2023-01-29T22:13:29;98770.53;;;-1.02;65.54
53715;BME280;39608;55.630;37.864;2023-01-29T22:18:31;98761.28;;;-1.11;66.20
53715;BME280;39608;55.630;37.864;2023-01-29T22:23:34;98769.03;;;-1.10;65.66
53715;BME280;39608;55.630;37.864;2023-01-29T22:28:37;98757.00;;;-1.12;66.16
53715;BME280;39608;55.630;37.864;2023-01-29T22:33:39;98738.84;;;-1.15;66.40
53715;BME280;39608;55.630;37.864;2023-01-29T22:38:41;98739.34;;;-1.18;66.37
53715;BME280;39608;55.630;37.864;2023-01-29T22:43:44;98726.03;;;-1.18;66.65
53715;BME280;39608;55.630;37.864;2023-01-29T22:48:46;98724.53;;;-1.14;66.02
53715;BME280;39608;55.630;37.864;2023-01-29T22:53:50;98714.69;;;-1.14;66.32
53715;BME280;39608;55.630;37.864;2023-01-29T22:58:55;98709.59;;;-1.15;66.14
53715;BME280;39608;55.630;37.864;2023-01-29T23:03:57;98699.91;;;-1.22;66.26
53715;BME280;39608;55.630;37.864;2023-01-29T23:08:59;98694.00;;;-1.24;66.35
53715;BME280;39608;55.630;37.864;2023-01-29T23:14:02;98693.53;;;-1.21;66.71
53715;BME280;39608;55.630;37.864;2023-01-29T23:19:04;98679.09;;;-1.25;66.37
53715;BME280;39608;55.630;37.864;2023-01-29T23:24:07;98679.91;;;-1.24;66.95
53715;BME280;39608;55.630;37.864;2023-01-29T23:29:11;98669.50;;;-1.26;67.33
53715;BME280;39608;55.630;37.864;2023-01-29T23:34:13;98668.84;;;-1.33;66.96
53715;BME280;39608;55.630;37.864;2023-01-29T23:39:15;98660.94;;;-1.28;66.90
53715;BME280;39608;55.630;37.864;2023-01-29T23:44:18;98666.63;;;-1.24;67.30
53715;BME280;39608;55.630;37.864;2023-01-29T23:49:20;98656.13;;;-1.31;67.14
53715;BME280;39608;55.630;37.864;2023-01-29T23:54:22;98652.91;;;-1.33;67.29
53715;BME280;39608;55.630;37.864;2023-01-29T23:59:27;98629.66;;;-1.38;67.05
